Whitefish Falls, Canada
Current Conditions -  °F | °C
As of 8:00 PM on Saturday 25 Oct 2014 (Local Time) from CYZE Reporting Station
Overcast Overcast  
Wind Chill: 52°   Ceiling: 7000
Heat Index: 52°   Visibility: 9mi
Dew Point: 39°   Wind: 20mph
Humidity: 62%   Direction: 300°WNW
Pressure: 29.62"   Gusts: 31mph
Location:  46.1°N, 81.72°W
Report Text: CYZE 260000Z AUTO 30017G27KT 9SM OVC070 11/04 A2962 RMK SLP035
Loading
Personal Weather Stations






























Interactive Weather Map
Tropical Storm Tracking
New forecast layout! Learn more

10-Day Weather Forecast

Advertisements
Track Severe Weather on mobile